sensor_id;sensor_type;location;lat;lon;timestamp;temperature;humidity
16441;DHT22;8330;-33.858;151.184;2023-07-20T00:02:22;11.90;99.90
16441;DHT22;8330;-33.858;151.184;2023-07-20T00:04:55;12.00;99.90
16441;DHT22;8330;-33.858;151.184;2023-07-20T00:07:27;12.10;99.90
16441;DHT22;8330;-33.858;151.184;2023-07-20T00:10:01;12.10;99.90
16441;DHT22;8330;-33.858;151.184;2023-07-20T00:12:36;12.20;99.90
16441;DHT22;8330;-33.858;151.184;2023-07-20T00:15:12;12.30;99.90
16441;DHT22;8330;-33.858;151.184;2023-07-20T00:17:43;12.30;99.90
16441;DHT22;8330;-33.858;151.184;2023-07-20T00:20:18;12.40;99.90
16441;DHT22;8330;-33.858;151.184;2023-07-20T00:22:49;12.50;99.90
16441;DHT22;8330;-33.858;151.184;2023-07-20T00:25:20;12.50;99.90
16441;DHT22;8330;-33.858;151.184;2023-07-20T00:27:52;12.60;99.90
16441;DHT22;8330;-33.858;151.184;2023-07-20T00:30:25;12.70;99.90
16441;DHT22;8330;-33.858;151.184;2023-07-20T00:32:56;12.70;99.90
16441;DHT22;8330;-33.858;151.184;2023-07-20T00:35:31;12.80;99.90
16441;DHT22;8330;-33.858;151.184;2023-07-20T00:38:02;13.00;99.90
16441;DHT22;8330;-33.858;151.184;2023-07-20T00:40:37;13.10;99.90
16441;DHT22;8330;-33.858;151.184;2023-07-20T00:43:10;13.20;99.90
16441;DHT22;8330;-33.858;151.184;2023-07-20T00:45:41;13.30;99.90
16441;DHT22;8330;-33.858;151.184;2023-07-20T00:48:14;13.50;99.90
16441;DHT22;8330;-33.858;151.184;2023-07-20T00:50:50;13.70;99.90
16441;DHT22;8330;-33.858;151.184;2023-07-20T00:53:22;13.80;99.90
16441;DHT22;8330;-33.858;151.184;2023-07-20T00:55:55;13.90;99.90
16441;DHT22;8330;-33.858;151.184;2023-07-20T00:58:26;14.00;99.90
16441;DHT22;8330;-33.858;151.184;2023-07-20T01:00:57;14.20;99.90
16441;DHT22;8330;-33.858;151.184;2023-07-20T01:03:29;14.30;99.90
16441;DHT22;8330;-33.858;151.184;2023-07-20T01:06:10;14.40;99.90
16441;DHT22;8330;-33.858;151.184;2023-07-20T01:08:53;14.40;99.90
16441;DHT22;8330;-33.858;151.184;2023-07-20T01:11:35;14.70;99.90
16441;DHT22;8330;-33.858;151.184;2023-07-20T01:14:07;14.80;99.90
16441;DHT22;8330;-33.858;151.184;2023-07-20T01:16:39;15.00;99.90
16441;DHT22;8330;-33.858;151.184;2023-07-20T01:19:13;15.20;99.90
16441;DHT22;8330;-33.858;151.184;2023-07-20T01:21:50;15.30;99.90
16441;DHT22;8330;-33.858;151.184;2023-07-20T01:24:54;15.50;99.90
16441;DHT22;8330;-33.858;151.184;2023-07-20T01:33:33;15.90;99.50
16441;DHT22;8330;-33.858;151.184;2023-07-20T01:36:05;16.00;98.80
16441;DHT22;8330;-33.858;151.184;2023-07-20T01:38:37;16.10;97.60
16441;DHT22;8330;-33.858;151.184;2023-07-20T01:41:08;16.20;96.50
16441;DHT22;8330;-33.858;151.184;2023-07-20T01:43:40;16.40;95.70
16441;DHT22;8330;-33.858;151.184;2023-07-20T01:46:11;16.50;95.90
16441;DHT22;8330;-33.858;151.184;2023-07-20T01:48:44;16.60;93.40
16441;DHT22;8330;-33.858;151.184;2023-07-20T01:51:15;16.50;92.40
16441;DHT22;8330;-33.858;151.184;2023-07-20T01:53:47;16.60;90.50
16441;DHT22;8330;-33.858;151.184;2023-07-20T01:56:18;16.60;85.00
16441;DHT22;8330;-33.858;151.184;2023-07-20T01:58:49;16.60;81.70
16441;DHT22;8330;-33.858;151.184;2023-07-20T02:01:20;16.60;79.40
16441;DHT22;8330;-33.858;151.184;2023-07-20T02:03:53;16.70;79.30
16441;DHT22;8330;-33.858;151.184;2023-07-20T02:06:24;16.70;77.30
16441;DHT22;8330;-33.858;151.184;2023-07-20T02:08:56;16.80;78.80
16441;DHT22;8330;-33.858;151.184;2023-07-20T02:11:27;16.90;78.90
16441;DHT22;8330;-33.858;151.184;2023-07-20T02:13:58;17.00;78.00
16441;DHT22;8330;-33.858;151.184;2023-07-20T02:16:29;17.00;76.90
16441;DHT22;8330;-33.858;151.184;2023-07-20T02:19:02;17.10;76.10
16441;DHT22;8330;-33.858;151.184;2023-07-20T02:21:34;17.10;76.90
16441;DHT22;8330;-33.858;151.184;2023-07-20T02:24:07;17.20;76.40
16441;DHT22;8330;-33.858;151.184;2023-07-20T02:26:38;17.30;76.90
16441;DHT22;8330;-33.858;151.184;2023-07-20T02:29:09;17.30;75.50
16441;DHT22;8330;-33.858;151.184;2023-07-20T02:31:40;17.40;74.90
16441;DHT22;8330;-33.858;151.184;2023-07-20T02:34:14;17.50;73.90
16441;DHT22;8330;-33.858;151.184;2023-07-20T02:36:45;17.50;72.90
16441;DHT22;8330;-33.858;151.184;2023-07-20T02:39:16;17.50;73.20
16441;DHT22;8330;-33.858;151.184;2023-07-20T02:41:47;17.60;74.30
16441;DHT22;8330;-33.858;151.184;2023-07-20T02:44:18;17.70;73.60
16441;DHT22;8330;-33.858;151.184;2023-07-20T02:46:49;17.80;73.00
16441;DHT22;8330;-33.858;151.184;2023-07-20T02:49:23;17.70;73.50
16441;DHT22;8330;-33.858;151.184;2023-07-20T02:51:54;17.70;74.30
16441;DHT22;8330;-33.858;151.184;2023-07-20T02:54:26;17.90;73.10
16441;DHT22;8330;-33.858;151.184;2023-07-20T02:56:58;17.80;72.60
16441;DHT22;8330;-33.858;151.184;2023-07-20T02:59:29;17.90;72.20
16441;DHT22;8330;-33.858;151.184;2023-07-20T03:02:00;17.80;73.20
16441;DHT22;8330;-33.858;151.184;2023-07-20T03:04:33;17.90;73.50
16441;DHT22;8330;-33.858;151.184;2023-07-20T03:07:06;17.90;71.80
16441;DHT22;8330;-33.858;151.184;2023-07-20T03:09:38;18.00;73.30
16441;DHT22;8330;-33.858;151.184;2023-07-20T03:12:10;18.00;72.20
16441;DHT22;8330;-33.858;151.184;2023-07-20T03:14:42;18.00;72.50
16441;DHT22;8330;-33.858;151.184;2023-07-20T03:17:14;18.10;73.40
16441;DHT22;8330;-33.858;151.184;2023-07-20T03:19:47;18.20;70.80
16441;DHT22;8330;-33.858;151.184;2023-07-20T03:22:18;18.20;72.60
16441;DHT22;8330;-33.858;151.184;2023-07-20T03:24:49;18.20;72.90
16441;DHT22;8330;-33.858;151.184;2023-07-20T03:27:21;18.20;72.90
16441;DHT22;8330;-33.858;151.184;2023-07-20T03:29:52;18.30;73.70
16441;DHT22;8330;-33.858;151.184;2023-07-20T03:32:23;18.30;72.50
16441;DHT22;8330;-33.858;151.184;2023-07-20T03:34:58;18.30;71.30
16441;DHT22;8330;-33.858;151.184;2023-07-20T03:37:29;18.20;73.80
16441;DHT22;8330;-33.858;151.184;2023-07-20T03:40:02;18.20;74.40
16441;DHT22;8330;-33.858;151.184;2023-07-20T03:42:35;18.30;75.30
16441;DHT22;8330;-33.858;151.184;2023-07-20T03:45:07;18.20;74.30
16441;DHT22;8330;-33.858;151.184;2023-07-20T03:47:38;18.00;75.60
16441;DHT22;8330;-33.858;151.184;2023-07-20T03:50:11;17.90;75.90
16441;DHT22;8330;-33.858;151.184;2023-07-20T03:52:43;18.00;76.30
16441;DHT22;8330;-33.858;151.184;2023-07-20T03:55:14;18.00;76.40
16441;DHT22;8330;-33.858;151.184;2023-07-20T03:57:45;18.10;77.10
16441;DHT22;8330;-33.858;151.184;2023-07-20T04:00:19;18.10;76.20
16441;DHT22;8330;-33.858;151.184;2023-07-20T04:02:49;18.10;76.40
16441;DHT22;8330;-33.858;151.184;2023-07-20T04:05:22;18.20;76.10
16441;DHT22;8330;-33.858;151.184;2023-07-20T04:07:53;18.20;75.60
16441;DHT22;8330;-33.858;151.184;2023-07-20T04:10:26;18.20;76.00
16441;DHT22;8330;-33.858;151.184;2023-07-20T04:12:57;18.20;75.30
16441;DHT22;8330;-33.858;151.184;2023-07-20T04:15:28;18.10;76.00
16441;DHT22;8330;-33.858;151.184;2023-07-20T04:17:59;18.20;76.20
16441;DHT22;8330;-33.858;151.184;2023-07-20T04:20:32;18.10;75.40
16441;DHT22;8330;-33.858;151.184;2023-07-20T04:23:03;18.20;75.30
16441;DHT22;8330;-33.858;151.184;2023-07-20T04:25:34;18.20;74.70
16441;DHT22;8330;-33.858;151.184;2023-07-20T04:28:09;18.20;73.90
16441;DHT22;8330;-33.858;151.184;2023-07-20T04:30:40;18.10;74.80
16441;DHT22;8330;-33.858;151.184;2023-07-20T04:33:11;18.20;74.50
16441;DHT22;8330;-33.858;151.184;2023-07-20T04:35:54;18.20;74.70
16441;DHT22;8330;-33.858;151.184;2023-07-20T04:38:25;18.10;74.70
16441;DHT22;8330;-33.858;151.184;2023-07-20T04:40:56;18.10;75.70
16441;DHT22;8330;-33.858;151.184;2023-07-20T04:43:28;18.20;75.70
16441;DHT22;8330;-33.858;151.184;2023-07-20T04:46:00;18.10;74.40
16441;DHT22;8330;-33.858;151.184;2023-07-20T04:48:31;18.10;74.80
16441;DHT22;8330;-33.858;151.184;2023-07-20T04:51:05;18.10;74.40
16441;DHT22;8330;-33.858;151.184;2023-07-20T04:53:36;18.10;75.30
16441;DHT22;8330;-33.858;151.184;2023-07-20T04:56:07;18.10;75.30
16441;DHT22;8330;-33.858;151.184;2023-07-20T04:58:38;18.10;76.10
16441;DHT22;8330;-33.858;151.184;2023-07-20T05:01:10;18.10;76.00
16441;DHT22;8330;-33.858;151.184;2023-07-20T05:03:41;18.10;76.30
16441;DHT22;8330;-33.858;151.184;2023-07-20T05:06:14;18.00;76.80
16441;DHT22;8330;-33.858;151.184;2023-07-20T05:08:45;18.10;76.20
16441;DHT22;8330;-33.858;151.184;2023-07-20T05:11:16;18.10;76.30
16441;DHT22;8330;-33.858;151.184;2023-07-20T05:13:47;18.10;75.10
16441;DHT22;8330;-33.858;151.184;2023-07-20T05:16:18;18.20;74.80
16441;DHT22;8330;-33.858;151.184;2023-07-20T05:18:51;18.20;75.20
16441;DHT22;8330;-33.858;151.184;2023-07-20T05:21:27;18.20;73.70
16441;DHT22;8330;-33.858;151.184;2023-07-20T05:23:58;18.20;73.60
16441;DHT22;8330;-33.858;151.184;2023-07-20T05:26:29;18.20;73.60
16441;DHT22;8330;-33.858;151.184;2023-07-20T05:29:01;18.20;74.30
16441;DHT22;8330;-33.858;151.184;2023-07-20T05:31:34;18.30;73.80
16441;DHT22;8330;-33.858;151.184;2023-07-20T05:34:06;18.30;73.00
16441;DHT22;8330;-33.858;151.184;2023-07-20T05:36:39;18.40;72.40
16441;DHT22;8330;-33.858;151.184;2023-07-20T05:39:13;18.50;71.90
16441;DHT22;8330;-33.858;151.184;2023-07-20T05:41:45;18.60;71.00
16441;DHT22;8330;-33.858;151.184;2023-07-20T05:44:16;18.60;71.10
16441;DHT22;8330;-33.858;151.184;2023-07-20T05:46:47;18.60;69.90
16441;DHT22;8330;-33.858;151.184;2023-07-20T05:49:18;18.60;69.80
16441;DHT22;8330;-33.858;151.184;2023-07-20T05:51:56;18.60;70.20
16441;DHT22;8330;-33.858;151.184;2023-07-20T05:54:28;18.80;70.30
16441;DHT22;8330;-33.858;151.184;2023-07-20T05:57:00;18.80;70.10
16441;DHT22;8330;-33.858;151.184;2023-07-20T05:59:31;18.80;69.80
16441;DHT22;8330;-33.858;151.184;2023-07-20T06:02:02;18.90;70.00
16441;DHT22;8330;-33.858;151.184;2023-07-20T06:04:33;18.90;68.30
16441;DHT22;8330;-33.858;151.184;2023-07-20T06:07:07;18.90;67.40
16441;DHT22;8330;-33.858;151.184;2023-07-20T06:09:38;18.90;67.90
16441;DHT22;8330;-33.858;151.184;2023-07-20T06:12:10;19.00;67.10
16441;DHT22;8330;-33.858;151.184;2023-07-20T06:14:41;19.10;67.30
16441;DHT22;8330;-33.858;151.184;2023-07-20T06:17:12;19.10;66.90
16441;DHT22;8330;-33.858;151.184;2023-07-20T06:19:43;19.20;67.20
16441;DHT22;8330;-33.858;151.184;2023-07-20T06:22:16;19.20;66.00
16441;DHT22;8330;-33.858;151.184;2023-07-20T06:24:47;19.30;66.70
16441;DHT22;8330;-33.858;151.184;2023-07-20T06:27:18;19.40;66.10
16441;DHT22;8330;-33.858;151.184;2023-07-20T06:29:49;19.50;65.90
16441;DHT22;8330;-33.858;151.184;2023-07-20T06:32:20;19.60;66.20
16441;DHT22;8330;-33.858;151.184;2023-07-20T06:34:51;19.50;65.60
16441;DHT22;8330;-33.858;151.184;2023-07-20T06:37:27;19.30;65.40
16441;DHT22;8330;-33.858;151.184;2023-07-20T06:39:58;19.30;66.00
16441;DHT22;8330;-33.858;151.184;2023-07-20T06:42:30;19.10;66.10
16441;DHT22;8330;-33.858;151.184;2023-07-20T06:45:01;19.10;67.00
16441;DHT22;8330;-33.858;151.184;2023-07-20T06:47:34;19.00;66.40
16441;DHT22;8330;-33.858;151.184;2023-07-20T06:50:05;18.80;67.00
16441;DHT22;8330;-33.858;151.184;2023-07-20T06:52:38;18.70;68.50
16441;DHT22;8330;-33.858;151.184;2023-07-20T06:55:10;18.60;67.80
16441;DHT22;8330;-33.858;151.184;2023-07-20T06:57:41;18.50;68.40
16441;DHT22;8330;-33.858;151.184;2023-07-20T07:00:14;18.40;68.80
16441;DHT22;8330;-33.858;151.184;2023-07-20T07:02:45;18.30;69.10
16441;DHT22;8330;-33.858;151.184;2023-07-20T07:05:16;18.20;69.10
16441;DHT22;8330;-33.858;151.184;2023-07-20T07:07:49;18.10;69.20
16441;DHT22;8330;-33.858;151.184;2023-07-20T07:10:21;18.00;69.70
16441;DHT22;8330;-33.858;151.184;2023-07-20T07:12:52;17.90;71.90
16441;DHT22;8330;-33.858;151.184;2023-07-20T07:15:23;17.80;73.20
16441;DHT22;8330;-33.858;151.184;2023-07-20T07:17:55;17.70;74.30
16441;DHT22;8330;-33.858;151.184;2023-07-20T07:20:27;17.60;75.10
16441;DHT22;8330;-33.858;151.184;2023-07-20T07:23:13;17.60;75.70
16441;DHT22;8330;-33.858;151.184;2023-07-20T07:25:44;17.40;76.10
16441;DHT22;8330;-33.858;151.184;2023-07-20T07:28:16;17.40;76.70
16441;DHT22;8330;-33.858;151.184;2023-07-20T07:30:47;17.30;77.80
16441;DHT22;8330;-33.858;151.184;2023-07-20T07:33:18;17.20;77.10
16441;DHT22;8330;-33.858;151.184;2023-07-20T07:35:50;17.10;78.10
16441;DHT22;8330;-33.858;151.184;2023-07-20T07:38:23;17.10;80.30
16441;DHT22;8330;-33.858;151.184;2023-07-20T07:40:55;17.00;82.50
16441;DHT22;8330;-33.858;151.184;2023-07-20T07:43:26;17.00;84.90
16441;DHT22;8330;-33.858;151.184;2023-07-20T07:45:57;16.90;85.30
16441;DHT22;8330;-33.858;151.184;2023-07-20T07:48:29;16.80;86.90
16441;DHT22;8330;-33.858;151.184;2023-07-20T07:51:00;16.80;88.60
16441;DHT22;8330;-33.858;151.184;2023-07-20T07:53:33;16.70;90.20
16441;DHT22;8330;-33.858;151.184;2023-07-20T07:56:07;16.70;91.10
16441;DHT22;8330;-33.858;151.184;2023-07-20T07:58:38;16.60;91.80
16441;DHT22;8330;-33.858;151.184;2023-07-20T08:01:09;16.60;92.50
16441;DHT22;8330;-33.858;151.184;2023-07-20T08:03:40;16.50;93.20
16441;DHT22;8330;-33.858;151.184;2023-07-20T08:06:13;16.50;94.30
16441;DHT22;8330;-33.858;151.184;2023-07-20T08:08:47;16.40;95.30
16441;DHT22;8330;-33.858;151.184;2023-07-20T08:11:18;16.40;96.30
16441;DHT22;8330;-33.858;151.184;2023-07-20T08:13:49;16.30;96.80
16441;DHT22;8330;-33.858;151.184;2023-07-20T08:16:21;16.30;97.80
16441;DHT22;8330;-33.858;151.184;2023-07-20T08:18:53;16.30;97.70
16441;DHT22;8330;-33.858;151.184;2023-07-20T08:21:24;16.20;97.80
16441;DHT22;8330;-33.858;151.184;2023-07-20T08:23:57;16.20;97.30
16441;DHT22;8330;-33.858;151.184;2023-07-20T08:26:28;16.20;97.80
16441;DHT22;8330;-33.858;151.184;2023-07-20T08:28:59;16.10;98.40
16441;DHT22;8330;-33.858;151.184;2023-07-20T08:31:32;16.10;99.10
16441;DHT22;8330;-33.858;151.184;2023-07-20T08:34:03;16.10;99.70
16441;DHT22;8330;-33.858;151.184;2023-07-20T08:36:34;16.00;99.70
16441;DHT22;8330;-33.858;151.184;2023-07-20T08:39:09;16.00;99.90
16441;DHT22;8330;-33.858;151.184;2023-07-20T08:41:43;16.00;99.90
16441;DHT22;8330;-33.858;151.184;2023-07-20T08:44:14;16.00;99.90
16441;DHT22;8330;-33.858;151.184;2023-07-20T08:46:46;15.90;99.90
16441;DHT22;8330;-33.858;151.184;2023-07-20T08:49:18;15.90;99.90
16441;DHT22;8330;-33.858;151.184;2023-07-20T08:51:49;15.90;99.90
16441;DHT22;8330;-33.858;151.184;2023-07-20T08:54:24;15.90;99.90
16441;DHT22;8330;-33.858;151.184;2023-07-20T08:57:05;15.90;99.90
16441;DHT22;8330;-33.858;151.184;2023-07-20T08:59:38;15.90;99.90
16441;DHT22;8330;-33.858;151.184;2023-07-20T09:02:10;15.80;99.90
16441;DHT22;8330;-33.858;151.184;2023-07-20T09:04:42;15.80;99.90
16441;DHT22;8330;-33.858;151.184;2023-07-20T09:07:15;15.80;99.90
16441;DHT22;8330;-33.858;151.184;2023-07-20T09:09:48;15.80;99.90
16441;DHT22;8330;-33.858;151.184;2023-07-20T09:12:20;15.70;99.90
16441;DHT22;8330;-33.858;151.184;2023-07-20T09:14:51;15.70;99.90
16441;DHT22;8330;-33.858;151.184;2023-07-20T09:17:26;15.70;99.90
16441;DHT22;8330;-33.858;151.184;2023-07-20T09:19:58;15.70;99.90
16441;DHT22;8330;-33.858;151.184;2023-07-20T09:22:31;15.70;99.90
16441;DHT22;8330;-33.858;151.184;2023-07-20T09:25:07;15.60;99.90
16441;DHT22;8330;-33.858;151.184;2023-07-20T09:27:39;15.60;99.90
16441;DHT22;8330;-33.858;151.184;2023-07-20T09:30:11;15.60;99.90
16441;DHT22;8330;-33.858;151.184;2023-07-20T09:32:43;15.50;99.90
16441;DHT22;8330;-33.858;151.184;2023-07-20T09:35:15;15.50;99.90
16441;DHT22;8330;-33.858;151.184;2023-07-20T09:37:52;15.50;99.90
16441;DHT22;8330;-33.858;151.184;2023-07-20T09:40:25;15.40;99.90
16441;DHT22;8330;-33.858;151.184;2023-07-20T09:42:58;15.30;99.90
16441;DHT22;8330;-33.858;151.184;2023-07-20T09:45:34;15.30;99.90
16441;DHT22;8330;-33.858;151.184;2023-07-20T09:48:06;15.20;99.90
16441;DHT22;8330;-33.858;151.184;2023-07-20T09:50:41;15.20;99.90
16441;DHT22;8330;-33.858;151.184;2023-07-20T09:53:13;15.10;99.90
16441;DHT22;8330;-33.858;151.184;2023-07-20T09:55:48;15.00;99.90
16441;DHT22;8330;-33.858;151.184;2023-07-20T09:58:23;14.90;99.90
16441;DHT22;8330;-33.858;151.184;2023-07-20T10:00:58;14.90;99.90
16441;DHT22;8330;-33.858;151.184;2023-07-20T10:03:31;14.90;99.90
16441;DHT22;8330;-33.858;151.184;2023-07-20T10:06:07;14.90;99.90
16441;DHT22;8330;-33.858;151.184;2023-07-20T10:08:40;14.80;99.90
16441;DHT22;8330;-33.858;151.184;2023-07-20T10:11:16;14.70;99.90
16441;DHT22;8330;-33.858;151.184;2023-07-20T10:13:49;14.70;99.90
16441;DHT22;8330;-33.858;151.184;2023-07-20T10:16:28;14.60;99.90
16441;DHT22;8330;-33.858;151.184;2023-07-20T10:19:05;14.50;99.90
16441;DHT22;8330;-33.858;151.184;2023-07-20T10:21:42;14.50;99.90
16441;DHT22;8330;-33.858;151.184;2023-07-20T10:24:18;14.40;99.90
16441;DHT22;8330;-33.858;151.184;2023-07-20T10:26:51;14.40;99.90
16441;DHT22;8330;-33.858;151.184;2023-07-20T10:29:23;14.40;99.90
16441;DHT22;8330;-33.858;151.184;2023-07-20T10:31:56;14.40;99.90
16441;DHT22;8330;-33.858;151.184;2023-07-20T10:34:27;14.40;99.90
16441;DHT22;8330;-33.858;151.184;2023-07-20T10:36:58;14.40;99.90
16441;DHT22;8330;-33.858;151.184;2023-07-20T10:39:32;14.40;99.90
16441;DHT22;8330;-33.858;151.184;2023-07-20T10:42:08;14.40;99.90
16441;DHT22;8330;-33.858;151.184;2023-07-20T10:44:40;14.40;99.90
16441;DHT22;8330;-33.858;151.184;2023-07-20T10:47:12;14.50;99.90
16441;DHT22;8330;-33.858;151.184;2023-07-20T10:50:01;14.50;99.90
16441;DHT22;8330;-33.858;151.184;2023-07-20T10:52:38;14.50;99.90
16441;DHT22;8330;-33.858;151.184;2023-07-20T10:55:14;14.40;99.90
16441;DHT22;8330;-33.858;151.184;2023-07-20T10:58:08;14.40;99.90
16441;DHT22;8330;-33.858;151.184;2023-07-20T11:00:58;14.30;99.90
16441;DHT22;8330;-33.858;151.184;2023-07-20T11:03:31;14.20;99.90
16441;DHT22;8330;-33.858;151.184;2023-07-20T11:09:11;14.20;99.90
16441;DHT22;8330;-33.858;151.184;2023-07-20T11:11:47;14.10;99.90
16441;DHT22;8330;-33.858;151.184;2023-07-20T11:14:27;14.10;99.90
16441;DHT22;8330;-33.858;151.184;2023-07-20T11:17:12;14.00;99.90
16441;DHT22;8330;-33.858;151.184;2023-07-20T11:19:43;14.00;99.90
16441;DHT22;8330;-33.858;151.184;2023-07-20T11:22:17;14.00;99.90
16441;DHT22;8330;-33.858;151.184;2023-07-20T11:24:54;14.00;99.90
16441;DHT22;8330;-33.858;151.184;2023-07-20T11:27:26;13.90;99.90
16441;DHT22;8330;-33.858;151.184;2023-07-20T11:30:00;14.00;99.90
16441;DHT22;8330;-33.858;151.184;2023-07-20T11:32:31;13.90;99.90
16441;DHT22;8330;-33.858;151.184;2023-07-20T11:35:02;13.90;99.90
16441;DHT22;8330;-33.858;151.184;2023-07-20T11:37:33;13.90;99.90
16441;DHT22;8330;-33.858;151.184;2023-07-20T11:40:05;13.80;99.90
16441;DHT22;8330;-33.858;151.184;2023-07-20T11:42:34;13.80;99.90
16441;DHT22;8330;-33.858;151.184;2023-07-20T11:45:08;13.80;99.90
16441;DHT22;8330;-33.858;151.184;2023-07-20T11:47:42;13.80;99.90
16441;DHT22;8330;-33.858;151.184;2023-07-20T11:50:13;13.80;99.90
16441;DHT22;8330;-33.858;151.184;2023-07-20T11:52:42;13.80;99.90
16441;DHT22;8330;-33.858;151.184;2023-07-20T11:55:14;13.70;99.90
16441;DHT22;8330;-33.858;151.184;2023-07-20T11:58:02;13.70;99.90
16441;DHT22;8330;-33.858;151.184;2023-07-20T12:00:36;13.70;99.90
16441;DHT22;8330;-33.858;151.184;2023-07-20T12:03:09;13.70;99.90
16441;DHT22;8330;-33.858;151.184;2023-07-20T12:05:40;13.70;99.90
16441;DHT22;8330;-33.858;151.184;2023-07-20T12:08:13;13.70;99.90
16441;DHT22;8330;-33.858;151.184;2023-07-20T12:10:44;13.70;99.90
16441;DHT22;8330;-33.858;151.184;2023-07-20T12:13:16;13.60;99.90
16441;DHT22;8330;-33.858;151.184;2023-07-20T12:16:10;13.50;99.90
16441;DHT22;8330;-33.858;151.184;2023-07-20T12:18:45;13.60;99.90
16441;DHT22;8330;-33.858;151.184;2023-07-20T12:21:26;13.50;99.90
16441;DHT22;8330;-33.858;151.184;2023-07-20T12:24:08;13.60;99.90
16441;DHT22;8330;-33.858;151.184;2023-07-20T12:26:41;13.60;99.90
16441;DHT22;8330;-33.858;151.184;2023-07-20T12:29:18;13.60;99.90
16441;DHT22;8330;-33.858;151.184;2023-07-20T12:31:59;13.70;99.90
16441;DHT22;8330;-33.858;151.184;2023-07-20T12:34:30;13.70;99.90
16441;DHT22;8330;-33.858;151.184;2023-07-20T12:37:08;13.60;99.90
16441;DHT22;8330;-33.858;151.184;2023-07-20T12:39:56;13.60;99.90
16441;DHT22;8330;-33.858;151.184;2023-07-20T12:42:31;13.50;99.90
16441;DHT22;8330;-33.858;151.184;2023-07-20T12:45:09;13.60;99.90
16441;DHT22;8330;-33.858;151.184;2023-07-20T12:47:56;13.50;99.90
16441;DHT22;8330;-33.858;151.184;2023-07-20T12:50:40;13.40;99.90
16441;DHT22;8330;-33.858;151.184;2023-07-20T12:53:19;13.40;99.90
16441;DHT22;8330;-33.858;151.184;2023-07-20T12:56:04;13.30;99.90
16441;DHT22;8330;-33.858;151.184;2023-07-20T12:58:43;13.40;99.90
16441;DHT22;8330;-33.858;151.184;2023-07-20T13:01:18;13.30;99.90
16441;DHT22;8330;-33.858;151.184;2023-07-20T13:03:52;13.20;99.90
16441;DHT22;8330;-33.858;151.184;2023-07-20T13:06:24;13.30;99.90
16441;DHT22;8330;-33.858;151.184;2023-07-20T13:09:05;13.30;99.90
16441;DHT22;8330;-33.858;151.184;2023-07-20T13:11:48;13.30;99.90
16441;DHT22;8330;-33.858;151.184;2023-07-20T13:14:20;13.30;99.90
16441;DHT22;8330;-33.858;151.184;2023-07-20T13:16:58;13.30;99.90
16441;DHT22;8330;-33.858;151.184;2023-07-20T13:19:33;13.30;99.90
16441;DHT22;8330;-33.858;151.184;2023-07-20T13:22:14;13.40;99.90
16441;DHT22;8330;-33.858;151.184;2023-07-20T13:24:56;13.50;99.90
16441;DHT22;8330;-33.858;151.184;2023-07-20T13:27:29;13.50;99.90
16441;DHT22;8330;-33.858;151.184;2023-07-20T13:30:00;13.60;99.90
16441;DHT22;8330;-33.858;151.184;2023-07-20T13:32:44;13.60;99.90
16441;DHT22;8330;-33.858;151.184;2023-07-20T13:35:26;13.60;99.90
16441;DHT22;8330;-33.858;151.184;2023-07-20T13:38:02;13.60;99.90
16441;DHT22;8330;-33.858;151.184;2023-07-20T13:40:37;13.70;99.90
16441;DHT22;8330;-33.858;151.184;2023-07-20T13:43:25;13.70;99.90
16441;DHT22;8330;-33.858;151.184;2023-07-20T13:45:59;13.60;99.90
16441;DHT22;8330;-33.858;151.184;2023-07-20T13:48:49;13.60;99.90
16441;DHT22;8330;-33.858;151.184;2023-07-20T13:51:27;13.50;99.90
16441;DHT22;8330;-33.858;151.184;2023-07-20T13:54:07;13.50;99.90
16441;DHT22;8330;-33.858;151.184;2023-07-20T13:56:50;13.50;99.90
16441;DHT22;8330;-33.858;151.184;2023-07-20T13:59:23;13.50;99.90
16441;DHT22;8330;-33.858;151.184;2023-07-20T14:02:07;13.50;99.90
16441;DHT22;8330;-33.858;151.184;2023-07-20T14:04:39;13.40;99.90
16441;DHT22;8330;-33.858;151.184;2023-07-20T14:07:22;13.40;99.90
16441;DHT22;8330;-33.858;151.184;2023-07-20T14:09:53;13.50;99.90
16441;DHT22;8330;-33.858;151.184;2023-07-20T14:12:36;13.40;99.90
16441;DHT22;8330;-33.858;151.184;2023-07-20T14:15:09;13.40;99.90
16441;DHT22;8330;-33.858;151.184;2023-07-20T14:17:40;13.30;99.90
16441;DHT22;8330;-33.858;151.184;2023-07-20T14:20:12;13.40;99.90
16441;DHT22;8330;-33.858;151.184;2023-07-20T14:22:47;13.40;99.90
16441;DHT22;8330;-33.858;151.184;2023-07-20T14:25:19;13.40;99.90
16441;DHT22;8330;-33.858;151.184;2023-07-20T14:27:50;13.30;99.90
16441;DHT22;8330;-33.858;151.184;2023-07-20T14:30:21;13.30;99.90
16441;DHT22;8330;-33.858;151.184;2023-07-20T14:32:53;13.30;99.90
16441;DHT22;8330;-33.858;151.184;2023-07-20T14:35:24;13.30;99.90
16441;DHT22;8330;-33.858;151.184;2023-07-20T14:37:57;13.30;99.90
16441;DHT22;8330;-33.858;151.184;2023-07-20T14:40:28;13.30;99.90
16441;DHT22;8330;-33.858;151.184;2023-07-20T14:42:59;13.30;99.90
16441;DHT22;8330;-33.858;151.184;2023-07-20T14:45:32;13.30;99.90
16441;DHT22;8330;-33.858;151.184;2023-07-20T14:48:03;13.20;99.90
16441;DHT22;8330;-33.858;151.184;2023-07-20T14:50:35;13.20;99.90
16441;DHT22;8330;-33.858;151.184;2023-07-20T14:53:08;13.20;99.90
16441;DHT22;8330;-33.858;151.184;2023-07-20T14:55:41;13.20;99.90
16441;DHT22;8330;-33.858;151.184;2023-07-20T14:58:12;13.20;99.90
16441;DHT22;8330;-33.858;151.184;2023-07-20T15:00:43;13.20;99.90
16441;DHT22;8330;-33.858;151.184;2023-07-20T15:03:14;13.30;99.90
16441;DHT22;8330;-33.858;151.184;2023-07-20T15:05:47;13.20;99.90
16441;DHT22;8330;-33.858;151.184;2023-07-20T15:08:21;13.20;99.90
16441;DHT22;8330;-33.858;151.184;2023-07-20T15:10:52;13.20;99.90
16441;DHT22;8330;-33.858;151.184;2023-07-20T15:13:23;13.20;99.90
16441;DHT22;8330;-33.858;151.184;2023-07-20T15:15:55;13.20;99.90
16441;DHT22;8330;-33.858;151.184;2023-07-20T15:18:26;13.20;99.90
16441;DHT22;8330;-33.858;151.184;2023-07-20T15:20:58;13.20;99.90
16441;DHT22;8330;-33.858;151.184;2023-07-20T15:23:31;13.30;99.90
16441;DHT22;8330;-33.858;151.184;2023-07-20T15:26:03;13.30;99.90
16441;DHT22;8330;-33.858;151.184;2023-07-20T15:28:36;13.40;99.90
16441;DHT22;8330;-33.858;151.184;2023-07-20T15:31:07;13.50;99.90
16441;DHT22;8330;-33.858;151.184;2023-07-20T15:33:38;13.60;99.90
16441;DHT22;8330;-33.858;151.184;2023-07-20T15:36:09;13.60;99.90
16441;DHT22;8330;-33.858;151.184;2023-07-20T15:38:45;13.70;99.90
16441;DHT22;8330;-33.858;151.184;2023-07-20T15:41:16;13.70;99.90
16441;DHT22;8330;-33.858;151.184;2023-07-20T15:43:47;13.70;99.90
16441;DHT22;8330;-33.858;151.184;2023-07-20T15:46:44;13.70;99.90
16441;DHT22;8330;-33.858;151.184;2023-07-20T15:49:15;13.60;99.90
16441;DHT22;8330;-33.858;151.184;2023-07-20T15:51:46;13.50;99.90